createdAt,value
2018-07-22T00:00:29.202Z,18.60
2018-07-22T00:02:57.435Z,18.60
2018-07-22T00:05:25.635Z,18.60
2018-07-22T00:07:53.913Z,18.60
2018-07-22T00:12:52.699Z,18.50
2018-07-22T00:15:20.941Z,18.40
2018-07-22T00:17:49.407Z,18.30
2018-07-22T00:20:17.941Z,18.30
2018-07-22T00:22:46.493Z,18.20
2018-07-22T00:25:15.107Z,18.20
2018-07-22T00:27:43.283Z,18.20
2018-07-22T00:30:11.563Z,18.20
2018-07-22T00:32:41.056Z,18.10
2018-07-22T00:35:10.032Z,18.10
2018-07-22T00:37:38.529Z,18.10
2018-07-22T00:42:35.766Z,18.00
2018-07-22T00:45:03.987Z,18.00
2018-07-22T00:47:32.209Z,18.00
2018-07-22T00:50:00.461Z,18.00
2018-07-22T00:52:28.651Z,18.10
2018-07-22T00:54:56.859Z,18.10
2018-07-22T00:57:25.055Z,18.10
2018-07-22T00:59:53.318Z,18.10
2018-07-22T01:02:21.485Z,18.10
2018-07-22T01:04:49.721Z,18.10
2018-07-22T01:07:17.889Z,18.10
2018-07-22T01:09:46.077Z,18.10
2018-07-22T01:12:14.274Z,18.10
2018-07-22T01:14:42.474Z,18.10
2018-07-22T01:17:10.675Z,18.20
2018-07-22T01:19:38.935Z,18.20
2018-07-22T01:22:07.227Z,18.20
2018-07-22T01:24:35.424Z,18.20
2018-07-22T01:27:03.606Z,18.20
2018-07-22T01:29:31.812Z,18.20
2018-07-22T01:32:00.056Z,18.20
2018-07-22T01:34:28.263Z,18.30
2018-07-22T01:36:56.451Z,18.30
2018-07-22T01:41:52.653Z,18.30
2018-07-22T01:44:21.483Z,18.30
2018-07-22T01:46:49.752Z,18.40
2018-07-22T01:49:18.001Z,18.30
2018-07-22T01:51:46.197Z,18.30
2018-07-22T01:54:14.399Z,18.30
2018-07-22T01:56:42.591Z,18.30
2018-07-22T01:59:10.851Z,18.30
2018-07-22T02:01:39.131Z,18.30
2018-07-22T02:04:07.339Z,18.30
2018-07-22T02:06:35.525Z,18.30
2018-07-22T02:09:04.811Z,18.30
2018-07-22T02:11:33.023Z,18.30
2018-07-22T02:14:01.297Z,18.30
2018-07-22T02:16:29.555Z,18.20
2018-07-22T02:18:57.757Z,18.20
2018-07-22T02:21:25.961Z,18.20
2018-07-22T02:23:54.176Z,18.20
2018-07-22T02:26:22.381Z,18.20
2018-07-22T02:28:50.613Z,18.20
2018-07-22T02:31:18.869Z,18.30
2018-07-22T02:33:47.109Z,18.30
2018-07-22T02:36:15.380Z,18.30
2018-07-22T02:38:43.579Z,18.30
2018-07-22T02:41:11.784Z,18.40
2018-07-22T02:43:39.966Z,18.30
2018-07-22T02:46:08.151Z,18.30
2018-07-22T02:48:36.417Z,18.30
2018-07-22T02:51:04.675Z,18.40
2018-07-22T02:53:32.956Z,18.40
2018-07-22T02:56:01.202Z,18.40
2018-07-22T02:58:29.469Z,18.40
2018-07-22T03:00:57.863Z,18.40
2018-07-22T03:03:26.104Z,18.40
2018-07-22T03:05:54.285Z,18.50
2018-07-22T03:08:22.493Z,18.40
2018-07-22T03:10:50.829Z,18.40
2018-07-22T03:13:19.045Z,18.40
2018-07-22T03:15:47.239Z,18.40
2018-07-22T03:18:15.498Z,18.40
2018-07-22T03:20:43.781Z,18.40
2018-07-22T03:23:12.044Z,18.30
2018-07-22T03:25:40.291Z,18.30
2018-07-22T03:28:08.790Z,18.30
2018-07-22T03:30:37.260Z,18.20
2018-07-22T03:33:05.455Z,18.20
2018-07-22T03:35:33.620Z,18.10
2018-07-22T03:38:01.875Z,18.10
2018-07-22T03:40:30.338Z,18.10
2018-07-22T03:42:58.518Z,18.10
2018-07-22T03:45:26.715Z,18.10
2018-07-22T03:47:55.240Z,18.10
2018-07-22T03:50:23.533Z,18.10
2018-07-22T03:52:51.706Z,18.20
2018-07-22T03:55:19.896Z,18.20
2018-07-22T03:57:48.074Z,18.30
2018-07-22T04:00:16.310Z,18.30
2018-07-22T04:02:44.531Z,18.40
2018-07-22T04:05:12.708Z,18.40
2018-07-22T04:07:40.936Z,18.50
2018-07-22T04:10:09.169Z,18.50
2018-07-22T04:12:37.377Z,18.60
2018-07-22T04:15:05.609Z,18.60
2018-07-22T04:17:33.990Z,18.60
2018-07-22T04:22:30.180Z,18.70
2018-07-22T04:24:58.374Z,18.70
2018-07-22T04:27:26.578Z,18.80
2018-07-22T04:29:54.774Z,18.80
2018-07-22T04:32:22.959Z,18.80
2018-07-22T04:34:51.144Z,18.90
2018-07-22T04:37:19.326Z,18.90
2018-07-22T04:42:15.493Z,19.00
2018-07-22T04:44:43.706Z,19.10
2018-07-22T04:47:11.923Z,19.10
2018-07-22T04:49:40.118Z,19.20
2018-07-22T04:52:08.301Z,19.20
2018-07-22T04:54:36.589Z,19.30
2018-07-22T04:57:04.866Z,19.30
2018-07-22T04:59:33.248Z,19.30
2018-07-22T05:02:01.457Z,19.30
2018-07-22T05:04:29.648Z,19.40
2018-07-22T05:06:57.858Z,19.50
2018-07-22T05:09:26.046Z,19.50
2018-07-22T05:11:54.241Z,19.60
2018-07-22T05:14:22.460Z,19.70
2018-07-22T05:16:50.697Z,19.70
2018-07-22T05:19:18.868Z,19.80
2018-07-22T05:21:47.056Z,19.90
2018-07-22T05:26:43.367Z,20.10
2018-07-22T05:29:11.624Z,20.20
2018-07-22T05:31:39.816Z,20.30
2018-07-22T05:34:08.130Z,20.50
2018-07-22T05:36:36.622Z,20.60
2018-07-22T05:39:07.541Z,20.70
2018-07-22T05:41:35.780Z,20.80
2018-07-22T05:44:03.974Z,21.00
2018-07-22T05:46:32.174Z,21.10
2018-07-22T05:49:00.361Z,21.20
2018-07-22T05:51:28.571Z,21.30
2018-07-22T05:53:56.823Z,21.50
2018-07-22T05:56:25.038Z,21.60
2018-07-22T06:01:21.185Z,21.90
2018-07-22T06:06:17.396Z,22.10
2018-07-22T06:08:45.588Z,22.20
2018-07-22T06:11:13.834Z,22.30
2018-07-22T06:13:42.092Z,22.30
2018-07-22T06:16:10.322Z,22.30
2018-07-22T06:18:38.592Z,22.40
2018-07-22T06:21:06.879Z,22.50
2018-07-22T06:23:35.084Z,22.60
2018-07-22T06:26:03.271Z,22.70
2018-07-22T06:28:31.454Z,22.80
2018-07-22T06:33:27.604Z,22.90
2018-07-22T06:35:55.775Z,23.00
2018-07-22T06:38:24.041Z,23.10
2018-07-22T06:40:52.267Z,23.20
2018-07-22T06:43:20.489Z,23.30
2018-07-22T06:45:48.676Z,23.40
2018-07-22T06:48:16.929Z,23.40
2018-07-22T06:50:45.131Z,23.40
2018-07-22T06:53:13.337Z,23.40
2018-07-22T06:55:41.628Z,23.50
2018-07-22T06:58:09.827Z,23.60
2018-07-22T07:00:38.039Z,23.70
2018-07-22T07:03:06.260Z,23.80
2018-07-22T07:05:34.457Z,23.90
2018-07-22T07:08:02.725Z,24.10
2018-07-22T07:12:58.864Z,24.50
2018-07-22T07:15:27.071Z,24.70
2018-07-22T07:17:55.575Z,24.90
2018-07-22T07:20:23.756Z,25.00
2018-07-22T07:22:51.947Z,25.20
2018-07-22T07:25:20.162Z,25.20
2018-07-22T07:27:48.375Z,25.30
2018-07-22T07:30:16.605Z,25.40
2018-07-22T07:32:44.803Z,25.60
2018-07-22T07:35:13.011Z,25.70
2018-07-22T07:37:41.209Z,25.60
2018-07-22T07:40:09.464Z,25.70
2018-07-22T07:42:37.690Z,25.90
2018-07-22T07:45:06.109Z,26.00
2018-07-22T07:47:34.295Z,26.10
2018-07-22T07:50:02.785Z,26.20
2018-07-22T07:52:30.991Z,26.40
2018-07-22T07:54:59.496Z,26.40
2018-07-22T07:57:27.703Z,26.50
2018-07-22T08:02:25.414Z,26.40
2018-07-22T08:04:53.749Z,26.20
2018-07-22T08:07:21.989Z,26.00
2018-07-22T08:09:50.265Z,25.90
2018-07-22T08:12:18.496Z,25.80
2018-07-22T08:14:46.699Z,25.80
2018-07-22T08:17:14.883Z,25.80
2018-07-22T08:19:43.117Z,25.70
2018-07-22T08:22:11.295Z,25.60
2018-07-22T08:24:39.492Z,25.50
2018-07-22T08:27:07.659Z,25.50
2018-07-22T08:29:36.213Z,25.50
2018-07-22T08:32:05.367Z,25.50
2018-07-22T08:34:33.605Z,25.40
2018-07-22T08:37:01.977Z,25.60
2018-07-22T08:39:31.331Z,25.60
2018-07-22T08:41:59.965Z,25.80
2018-07-22T08:44:28.457Z,25.90
2018-07-22T08:46:56.680Z,26.00
2018-07-22T08:49:24.931Z,26.10
2018-07-22T08:51:53.111Z,26.10
2018-07-22T08:54:21.525Z,26.30
2018-07-22T08:56:49.719Z,26.30
2018-07-22T08:59:17.951Z,26.40
2018-07-22T09:01:46.167Z,26.40
2018-07-22T09:04:14.377Z,26.60
2018-07-22T09:06:42.582Z,26.80
2018-07-22T09:09:11.870Z,26.90
2018-07-22T09:11:40.113Z,27.00
2018-07-22T09:14:08.971Z,27.10
2018-07-22T09:16:37.232Z,27.30
2018-07-22T09:19:06.535Z,27.50
2018-07-22T09:24:02.684Z,27.80
2018-07-22T09:28:59.013Z,28.10
2018-07-22T09:31:27.211Z,28.20
2018-07-22T09:33:55.439Z,28.50
2018-07-22T09:36:23.634Z,28.70
2018-07-22T09:38:51.865Z,29.10
2018-07-22T09:41:20.097Z,29.40
2018-07-22T09:43:48.385Z,29.40
2018-07-22T09:46:16.597Z,29.60
2018-07-22T09:48:44.800Z,29.70
2018-07-22T09:51:12.992Z,29.90
2018-07-22T09:53:41.394Z,29.90
2018-07-22T09:58:37.531Z,30.10
2018-07-22T10:01:05.697Z,30.20
2018-07-22T10:03:33.895Z,30.20
2018-07-22T10:06:02.085Z,30.00
2018-07-22T10:08:30.328Z,29.90
2018-07-22T10:10:58.527Z,29.70
2018-07-22T10:13:26.807Z,29.50
2018-07-22T10:15:54.996Z,29.50
2018-07-22T10:18:23.221Z,29.30
2018-07-22T10:20:51.441Z,29.20
2018-07-22T10:23:19.642Z,29.10
2018-07-22T10:25:47.801Z,29.00
2018-07-22T10:28:16.071Z,28.90
2018-07-22T10:30:44.484Z,29.30
2018-07-22T10:33:12.711Z,29.40
2018-07-22T10:35:41.137Z,29.40
2018-07-22T10:38:09.365Z,29.30
2018-07-22T10:40:37.589Z,29.50
2018-07-22T10:43:05.897Z,29.50
2018-07-22T10:45:34.111Z,29.90
2018-07-22T10:48:02.351Z,30.40
2018-07-22T10:50:30.535Z,30.90
2018-07-22T10:52:58.752Z,31.10
2018-07-22T10:57:55.299Z,31.50
2018-07-22T11:00:23.487Z,31.90
2018-07-22T11:02:51.711Z,31.90
2018-07-22T11:05:19.905Z,32.10
2018-07-22T11:07:48.099Z,33.00
2018-07-22T11:10:16.510Z,33.90
2018-07-22T11:12:44.718Z,34.50
2018-07-22T11:15:12.992Z,34.40
2018-07-22T11:17:41.211Z,34.40
2018-07-22T11:20:09.421Z,34.30
2018-07-22T11:22:37.621Z,34.40
2018-07-22T11:27:33.943Z,34.00
2018-07-22T11:30:02.159Z,34.50
2018-07-22T11:32:30.381Z,34.90
2018-07-22T11:34:58.575Z,35.10
2018-07-22T11:37:26.791Z,35.50
2018-07-22T11:39:54.986Z,35.50
2018-07-22T11:42:23.377Z,35.60
2018-07-22T11:44:51.551Z,35.20
2018-07-22T11:47:19.761Z,35.60
2018-07-22T11:49:47.955Z,36.20
2018-07-22T11:52:16.177Z,36.40
2018-07-22T11:57:12.469Z,36.20
2018-07-22T11:59:40.663Z,36.30
2018-07-22T12:02:08.856Z,36.70
2018-07-22T12:04:37.066Z,37.00
2018-07-22T12:07:05.260Z,37.50
2018-07-22T12:09:33.460Z,37.50
2018-07-22T12:12:01.681Z,37.00
2018-07-22T12:14:29.888Z,36.40
2018-07-22T12:16:58.103Z,36.00
2018-07-22T12:19:26.313Z,36.40
2018-07-22T12:21:54.547Z,36.50
2018-07-22T12:24:22.755Z,36.50
2018-07-22T12:26:50.977Z,36.00
2018-07-22T12:29:19.177Z,35.30
2018-07-22T12:31:47.377Z,34.30
2018-07-22T12:34:15.614Z,33.40
2018-07-22T12:36:43.765Z,32.90
2018-07-22T12:39:12.997Z,33.40
2018-07-22T12:41:41.358Z,34.10
2018-07-22T12:44:09.649Z,34.70
2018-07-22T12:46:37.859Z,35.10
2018-07-22T12:49:06.300Z,35.60
2018-07-22T12:51:34.527Z,35.80
2018-07-22T12:54:02.737Z,36.00
2018-07-22T12:56:30.957Z,36.30
2018-07-22T12:58:59.595Z,36.20
2018-07-22T13:01:28.021Z,36.00
2018-07-22T13:03:56.321Z,36.00
2018-07-22T13:08:52.612Z,36.90
2018-07-22T13:11:20.815Z,37.00
2018-07-22T13:13:49.007Z,37.30
2018-07-22T13:16:17.219Z,37.00
2018-07-22T13:18:45.418Z,36.40
2018-07-22T13:21:13.610Z,35.70
2018-07-22T13:23:43.649Z,34.70
2018-07-22T13:26:11.908Z,33.80
2018-07-22T13:28:40.102Z,33.20
2018-07-22T13:31:08.316Z,32.90
2018-07-22T13:33:36.494Z,32.70
2018-07-22T13:36:04.792Z,32.50
2018-07-22T13:38:33.176Z,32.20
2018-07-22T13:43:29.318Z,30.80
2018-07-22T13:48:25.836Z,29.90
2018-07-22T13:50:54.060Z,29.60
2018-07-22T13:53:22.352Z,29.20
2018-07-22T13:58:18.510Z,27.90
2018-07-22T14:00:46.706Z,27.50
2018-07-22T14:03:14.906Z,27.20
2018-07-22T14:05:43.109Z,27.10
2018-07-22T14:08:11.374Z,27.10
2018-07-22T14:10:39.584Z,27.00
2018-07-22T14:13:07.763Z,26.90
2018-07-22T14:15:36.017Z,26.80
2018-07-22T14:18:04.128Z,26.60
2018-07-22T14:20:32.346Z,26.40
2018-07-22T14:23:00.546Z,26.20
2018-07-22T14:25:28.780Z,26.00
2018-07-22T14:27:57.538Z,25.90
2018-07-22T14:30:25.726Z,25.80
2018-07-22T14:32:53.926Z,25.80
2018-07-22T14:35:22.146Z,25.70
2018-07-22T14:37:50.479Z,25.50
2018-07-22T14:40:18.669Z,25.30
2018-07-22T14:42:47.265Z,25.30
2018-07-22T14:45:15.492Z,25.40
2018-07-22T14:47:43.957Z,25.40
2018-07-22T14:50:12.196Z,25.40
2018-07-22T14:52:40.576Z,25.40
2018-07-22T14:55:08.800Z,25.40
2018-07-22T14:57:37.028Z,25.40
2018-07-22T15:00:05.427Z,25.30
2018-07-22T15:02:33.649Z,25.30
2018-07-22T15:05:01.860Z,25.20
2018-07-22T15:07:30.060Z,25.10
2018-07-22T15:09:58.298Z,25.00
2018-07-22T15:12:26.499Z,24.80
2018-07-22T15:14:54.720Z,24.70
2018-07-22T15:17:22.914Z,24.50
2018-07-22T15:19:51.117Z,24.30
2018-07-22T15:22:19.365Z,24.20
2018-07-22T15:24:47.558Z,24.10
2018-07-22T15:27:15.776Z,24.00
2018-07-22T15:29:43.982Z,23.80
2018-07-22T15:32:12.270Z,23.60
2018-07-22T15:34:40.836Z,23.50
2018-07-22T15:37:09.259Z,23.30
2018-07-22T15:39:37.506Z,23.20
2018-07-22T15:42:05.691Z,23.20
2018-07-22T15:44:34.077Z,23.30
2018-07-22T15:47:02.289Z,23.30
2018-07-22T15:49:30.541Z,23.40
2018-07-22T15:51:58.692Z,23.50
2018-07-22T15:56:54.900Z,23.70
2018-07-22T15:59:23.188Z,23.70
2018-07-22T16:02:54.194Z,23.80
2018-07-22T16:05:22.437Z,23.90
2018-07-22T16:07:50.701Z,24.00
2018-07-22T16:10:19.060Z,24.00
2018-07-22T16:12:47.280Z,24.00
2018-07-22T16:15:15.598Z,24.10
2018-07-22T16:17:43.843Z,24.00
2018-07-22T16:20:12.083Z,24.10
2018-07-22T16:22:40.844Z,24.10
2018-07-22T16:25:09.669Z,24.10
2018-07-22T16:27:37.950Z,24.10
2018-07-22T16:30:06.952Z,24.10
2018-07-22T16:32:35.228Z,24.10
2018-07-22T16:35:03.438Z,24.10
2018-07-22T16:37:31.652Z,24.10
2018-07-22T16:39:59.861Z,24.00
2018-07-22T16:42:28.064Z,23.80
2018-07-22T16:44:56.284Z,23.70
2018-07-22T16:47:24.677Z,23.60
2018-07-22T16:49:52.878Z,23.50
2018-07-22T16:52:21.090Z,23.30
2018-07-22T16:54:49.311Z,23.30
2018-07-22T16:57:17.513Z,23.30
2018-07-22T16:59:45.733Z,23.30
2018-07-22T17:04:42.196Z,23.30
2018-07-22T17:07:10.429Z,23.30
2018-07-22T17:12:06.921Z,23.30
2018-07-22T17:14:35.119Z,23.30
2018-07-22T17:17:03.317Z,23.30
2018-07-22T17:19:31.539Z,23.30
2018-07-22T17:21:59.739Z,23.30
2018-07-22T17:24:27.937Z,23.30
2018-07-22T17:26:56.143Z,23.30
2018-07-22T17:29:24.451Z,23.40
2018-07-22T17:31:52.765Z,23.50
2018-07-22T17:34:20.954Z,23.50
2018-07-22T17:36:49.146Z,23.60
2018-07-22T17:39:17.417Z,23.70
2018-07-22T17:41:45.633Z,23.80
2018-07-22T17:44:13.818Z,23.90
2018-07-22T17:49:09.973Z,24.20
2018-07-22T17:51:38.159Z,24.30
2018-07-22T17:54:06.440Z,24.40
2018-07-22T17:56:34.575Z,24.50
2018-07-22T17:59:02.787Z,24.50
2018-07-22T18:01:30.991Z,24.60
2018-07-22T18:03:59.221Z,24.50
2018-07-22T18:06:27.407Z,24.50
2018-07-22T18:08:55.611Z,24.50
2018-07-22T18:11:23.849Z,24.60
2018-07-22T18:13:52.071Z,24.60
2018-07-22T18:18:48.217Z,24.50
2018-07-22T18:21:16.428Z,24.50
2018-07-22T18:23:44.630Z,24.50
2018-07-22T18:26:12.843Z,24.50
2018-07-22T18:28:41.155Z,24.40
2018-07-22T18:31:09.388Z,24.40
2018-07-22T18:33:37.605Z,24.30
2018-07-22T18:36:05.989Z,24.30
2018-07-22T18:38:34.354Z,24.20
2018-07-22T18:41:02.565Z,24.10
2018-07-22T18:43:31.574Z,24.00
2018-07-22T18:45:59.854Z,23.90
2018-07-22T18:48:28.183Z,23.80
2018-07-22T18:50:56.593Z,23.70
2018-07-22T18:53:25.640Z,23.70
2018-07-22T18:55:53.891Z,23.70
2018-07-22T18:58:22.106Z,23.70
2018-07-22T19:00:50.329Z,23.60
2018-07-22T19:03:18.729Z,23.60
2018-07-22T19:05:47.008Z,23.50
2018-07-22T19:08:15.204Z,23.40
2018-07-22T19:10:43.425Z,23.30
2018-07-22T19:13:11.648Z,23.30
2018-07-22T19:15:40.169Z,23.20
2018-07-22T19:18:08.419Z,23.20
2018-07-22T19:20:36.640Z,23.10
2018-07-22T19:23:04.907Z,23.10
2018-07-22T19:25:33.117Z,22.90
2018-07-22T19:28:01.368Z,22.80
2018-07-22T19:30:29.636Z,22.80
2018-07-22T19:32:57.799Z,22.80
2018-07-22T19:35:26.075Z,22.80
2018-07-22T19:37:54.490Z,22.70
2018-07-22T19:40:22.758Z,22.70
2018-07-22T19:42:51.362Z,22.70
2018-07-22T19:45:19.607Z,22.70
2018-07-22T19:47:47.977Z,22.70
2018-07-22T19:52:44.140Z,22.60
2018-07-22T19:55:12.340Z,22.50
2018-07-22T19:57:40.550Z,22.40
2018-07-22T20:00:08.743Z,22.40
2018-07-22T20:02:36.974Z,22.30
2018-07-22T20:05:05.322Z,22.30
2018-07-22T20:07:33.572Z,22.20
2018-07-22T20:10:01.804Z,22.10
2018-07-22T20:12:30.106Z,22.10
2018-07-22T20:14:58.316Z,22.10
2018-07-22T20:17:26.530Z,22.10
2018-07-22T20:19:54.766Z,22.00
2018-07-22T20:22:23.046Z,22.00
2018-07-22T20:24:51.274Z,21.90
2018-07-22T20:29:47.464Z,21.60
2018-07-22T20:32:15.699Z,21.60
2018-07-22T20:34:43.924Z,21.50
2018-07-22T20:37:12.134Z,21.50
2018-07-22T20:39:40.506Z,21.50
2018-07-22T20:42:08.706Z,21.40
2018-07-22T20:44:36.956Z,21.40
2018-07-22T20:47:05.294Z,21.40
2018-07-22T20:49:33.525Z,21.40
2018-07-22T20:52:01.723Z,21.40
2018-07-22T20:54:29.907Z,21.30
2018-07-22T20:56:58.125Z,21.20
2018-07-22T20:59:26.330Z,21.20
2018-07-22T21:01:54.611Z,21.10
2018-07-22T21:04:22.807Z,21.10
2018-07-22T21:06:51.043Z,21.00
2018-07-22T21:09:19.253Z,21.00
2018-07-22T21:12:59.008Z,21.00
2018-07-22T21:15:27.205Z,21.00
2018-07-22T21:17:55.607Z,21.00
2018-07-22T21:20:23.856Z,21.00
2018-07-22T21:22:52.068Z,21.00
2018-07-22T21:25:20.462Z,21.00
2018-07-22T21:27:48.727Z,21.00
2018-07-22T21:30:16.959Z,20.90
2018-07-22T21:32:45.178Z,20.90
2018-07-22T21:35:13.395Z,20.90
2018-07-22T21:37:41.601Z,20.90
2018-07-22T21:40:09.811Z,20.90
2018-07-22T21:42:37.995Z,20.90
2018-07-22T21:45:06.955Z,20.90
2018-07-22T21:47:35.524Z,20.80
2018-07-22T21:50:04.462Z,20.80
2018-07-22T21:52:32.787Z,20.70
2018-07-22T21:55:01.027Z,20.70
2018-07-22T21:57:29.219Z,20.70
2018-07-22T21:59:57.441Z,20.60
2018-07-22T22:02:30.655Z,20.50
2018-07-22T22:04:59.207Z,20.50
2018-07-22T22:07:27.425Z,20.50
2018-07-22T22:09:55.681Z,20.50
2018-07-22T22:12:23.867Z,20.40
2018-07-22T22:14:52.088Z,20.40
2018-07-22T22:17:20.334Z,20.40
2018-07-22T22:19:48.489Z,20.30
2018-07-22T22:22:16.712Z,20.30
2018-07-22T22:24:44.980Z,20.30
2018-07-22T22:27:13.156Z,20.30
2018-07-22T22:29:41.374Z,20.20
2018-07-22T22:32:09.763Z,20.20
2018-07-22T22:34:37.998Z,20.10
2018-07-22T22:37:06.205Z,20.00
2018-07-22T22:39:34.429Z,20.00
2018-07-22T22:42:02.639Z,19.90
2018-07-22T22:44:30.847Z,20.00
2018-07-22T22:46:59.071Z,20.00
2018-07-22T22:51:55.399Z,20.00
2018-07-22T22:54:23.611Z,20.00
2018-07-22T22:56:51.809Z,20.00
2018-07-22T22:59:21.328Z,20.00
2018-07-22T23:01:49.892Z,20.00
2018-07-22T23:04:18.123Z,20.00
2018-07-22T23:06:46.703Z,20.00
2018-07-22T23:09:15.855Z,20.00
2018-07-22T23:11:44.299Z,20.00
2018-07-22T23:14:12.478Z,20.00
2018-07-22T23:16:40.923Z,20.00
2018-07-22T23:19:09.329Z,19.90
2018-07-22T23:21:37.590Z,19.90
2018-07-22T23:24:05.808Z,19.90
2018-07-22T23:26:34.027Z,19.90
2018-07-22T23:29:02.551Z,19.80
2018-07-22T23:31:30.735Z,19.80
2018-07-22T23:33:58.947Z,19.80
2018-07-22T23:36:27.163Z,19.80
2018-07-22T23:38:55.440Z,19.80
2018-07-22T23:41:23.671Z,19.70
2018-07-22T23:43:51.881Z,19.70
2018-07-22T23:46:20.109Z,19.60
2018-07-22T23:48:48.349Z,19.60
2018-07-22T23:53:44.719Z,19.50
2018-07-22T23:58:40.965Z,19.30
